createdAt,value
2018-02-23T00:00:38.471Z,90.59
2018-02-23T00:01:38.445Z,90.03
2018-02-23T00:02:38.420Z,89.84
2018-02-23T00:03:38.405Z,90.03
2018-02-23T00:04:38.378Z,89.65
2018-02-23T00:05:38.355Z,89.84
2018-02-23T00:06:38.071Z,89.47
2018-02-23T00:07:38.047Z,90.5
2018-02-23T00:08:38.279Z,90.22
2018-02-23T00:09:38.258Z,89.56
2018-02-23T00:10:38.231Z,89
2018-02-23T00:11:38.213Z,88.52
2018-02-23T00:12:38.192Z,88.52
2018-02-23T00:13:38.162Z,89.18
2018-02-23T00:14:38.138Z,89
2018-02-23T00:15:38.123Z,88.9
2018-02-23T00:16:38.154Z,89.75
2018-02-23T00:17:38.072Z,90.5
2018-02-23T00:18:38.045Z,91.25
2018-02-23T00:19:38.024Z,91.44
2018-02-23T00:20:38.006Z,91.91
2018-02-23T00:21:37.974Z,92.1
2018-02-23T00:22:37.956Z,91.72
2018-02-23T00:23:37.933Z,91.53
2018-02-23T00:24:37.905Z,91.53
2018-02-23T00:25:37.881Z,91.06
2018-02-23T00:26:37.855Z,90.5
2018-02-23T00:27:37.578Z,90.31
2018-02-23T00:28:37.811Z,89.75
2018-02-23T00:29:37.786Z,90.03
2018-02-23T00:30:37.767Z,89.75
2018-02-23T00:31:37.741Z,89.75
2018-02-23T00:32:37.715Z,89.75
2018-02-23T00:33:37.699Z,90.41
2018-02-23T00:34:37.410Z,90.31
2018-02-23T00:35:37.647Z,89.56
2018-02-23T00:36:37.624Z,90.03
2018-02-23T00:37:37.598Z,90.69
2018-02-23T00:38:37.317Z,90.22
2018-02-23T00:39:37.551Z,90.88
2018-02-23T00:40:37.529Z,90.88
2018-02-23T00:41:37.247Z,90.12
2018-02-23T00:42:37.224Z,90.41
2018-02-23T00:43:37.459Z,90.78
2018-02-23T00:44:37.435Z,90.59
2018-02-23T00:45:37.152Z,89.94
2018-02-23T00:46:37.128Z,90.69
2018-02-23T00:47:37.363Z,90.03
2018-02-23T00:48:37.083Z,89.75
2018-02-23T00:49:37.058Z,90.03
2018-02-23T00:50:37.297Z,90.22
2018-02-23T00:51:37.266Z,89.56
2018-02-23T00:52:36.986Z,89.65
2018-02-23T00:53:37.222Z,89.28
2018-02-23T00:54:37.197Z,88.9
2018-02-23T00:55:37.174Z,87.96
2018-02-23T00:56:37.148Z,87.96
2018-02-23T00:57:37.127Z,87.02
2018-02-23T00:58:37.103Z,87.11
2018-02-23T00:59:37.083Z,87.3
2018-02-23T01:00:36.796Z,86.73
2018-02-23T01:01:37.034Z,86.92
2018-02-23T01:02:36.751Z,86.07
2018-02-23T01:03:36.983Z,85.88
2018-02-23T01:04:36.969Z,85.04
2018-02-23T01:05:36.941Z,85.22
2018-02-23T01:06:36.658Z,85.88
2018-02-23T01:07:36.889Z,85.7
2018-02-23T01:08:36.870Z,84.19
2018-02-23T01:09:36.585Z,84.19
2018-02-23T01:10:36.818Z,84.47
2018-02-23T01:11:36.794Z,84.47
2018-02-23T01:12:36.768Z,85.04
2018-02-23T01:13:36.745Z,85.22
2018-02-23T01:14:36.727Z,85.32
2018-02-23T01:15:36.440Z,85.13
2018-02-23T01:16:36.417Z,85.51
2018-02-23T01:17:36.653Z,85.7
2018-02-23T01:18:36.634Z,85.88
2018-02-23T01:19:36.604Z,86.83
2018-02-23T01:20:36.579Z,87.2
2018-02-23T01:21:36.608Z,87.58
2018-02-23T01:22:36.532Z,87.2
2018-02-23T01:23:36.508Z,87.02
2018-02-23T01:24:36.486Z,87.3
2018-02-23T01:25:36.462Z,87.02
2018-02-23T01:26:36.180Z,85.88
2018-02-23T01:27:36.411Z,85.41
2018-02-23T01:28:36.392Z,83.72
2018-02-23T01:29:36.371Z,82.78
2018-02-23T01:30:36.354Z,82.12
2018-02-23T01:31:36.317Z,81.93
2018-02-23T01:32:36.297Z,82.03
2018-02-23T01:33:36.270Z,82.21
2018-02-23T01:34:36.255Z,82.31
2018-02-23T01:35:35.966Z,82.03
2018-02-23T01:36:36.198Z,82.21
2018-02-23T01:37:36.174Z,82.03
2018-02-23T01:38:35.894Z,82.31
2018-02-23T01:39:36.130Z,82.21
2018-02-23T01:40:35.847Z,82.21
2018-02-23T01:41:35.823Z,81.74
2018-02-23T01:42:36.136Z,81.74
2018-02-23T01:43:36.030Z,81.93
2018-02-23T01:44:36.007Z,82.21
2018-02-23T01:45:35.990Z,82.03
2018-02-23T01:46:35.960Z,82.4
2018-02-23T01:47:35.935Z,82.31
2018-02-23T01:48:35.913Z,82.68
2018-02-23T01:49:35.886Z,82.5
2018-02-23T01:50:35.869Z,81.93
2018-02-23T01:51:35.583Z,82.03
2018-02-23T01:52:35.822Z,82.5
2018-02-23T01:53:35.793Z,82.87
2018-02-23T01:54:35.767Z,81.93
2018-02-23T01:55:35.488Z,81.74
2018-02-23T01:56:35.721Z,81.56
2018-02-23T01:57:35.698Z,81.37
2018-02-23T01:58:35.676Z,81.46
2018-02-23T01:59:35.648Z,81.37
2018-02-23T02:00:35.627Z,80.8
2018-02-23T02:01:35.601Z,81.84
2018-02-23T02:02:35.320Z,82.12
2018-02-23T02:03:35.295Z,82.4
2018-02-23T02:04:35.540Z,82.68
2018-02-23T02:05:35.503Z,83.62
2018-02-23T02:06:35.484Z,83.72
2018-02-23T02:07:35.201Z,84.09
2018-02-23T02:08:35.436Z,84
2018-02-23T02:09:35.410Z,83.53
2018-02-23T02:10:35.388Z,83.44
2018-02-23T02:11:35.105Z,83.44
2018-02-23T02:12:35.341Z,83.62
2018-02-23T02:13:35.312Z,82.5
2018-02-23T02:14:35.290Z,82.78
2018-02-23T02:15:35.266Z,82.59
2018-02-23T02:16:35.240Z,83.44
2018-02-23T02:17:34.962Z,83.81
2018-02-23T02:18:35.192Z,83.53
2018-02-23T02:19:35.175Z,84
2018-02-23T02:20:35.147Z,84.56
2018-02-23T02:21:35.125Z,84
2018-02-23T02:22:34.843Z,83.91
2018-02-23T02:23:35.074Z,83.53
2018-02-23T02:24:34.799Z,83.44
2018-02-23T02:25:34.768Z,83.15
2018-02-23T02:26:35.001Z,82.68
2018-02-23T02:27:34.980Z,82.03
2018-02-23T02:28:34.955Z,82.03
2018-02-23T02:29:34.929Z,81.84
2018-02-23T02:30:34.929Z,81.08
2018-02-23T02:31:34.890Z,81.18
2018-02-23T02:32:34.862Z,81.93
2018-02-23T02:33:34.838Z,81.93
2018-02-23T02:34:34.552Z,81.56
2018-02-23T02:35:34.530Z,81.27
2018-02-23T02:36:34.767Z,80.52
2018-02-23T02:37:34.741Z,79.86
2018-02-23T02:38:34.714Z,79.76
2018-02-23T02:39:34.700Z,80.14
2018-02-23T02:40:34.669Z,81.18
2018-02-23T02:41:34.645Z,81.46
2018-02-23T02:42:34.361Z,81.27
2018-02-23T02:43:34.597Z,80.71
2018-02-23T02:44:34.314Z,80.71
2018-02-23T02:45:34.288Z,80.71
2018-02-23T02:46:34.524Z,81.37
2018-02-23T02:47:34.504Z,81.93
2018-02-23T02:48:34.475Z,81.37
2018-02-23T02:49:34.448Z,81.18
2018-02-23T02:50:34.168Z,81.37
2018-02-23T02:51:34.402Z,82.31
2018-02-23T02:52:34.380Z,82.31
2018-02-23T02:53:34.355Z,82.59
2018-02-23T02:54:34.331Z,82.03
2018-02-23T02:55:34.323Z,80.71
2018-02-23T02:56:34.292Z,80.05
2018-02-23T02:57:34.261Z,79.29
2018-02-23T02:58:34.238Z,79.29
2018-02-23T02:59:34.222Z,79.29
2018-02-23T03:00:34.193Z,79.39
2018-02-23T03:01:34.162Z,78.73
2018-02-23T03:02:34.141Z,79.1
2018-02-23T03:03:34.114Z,79.39
2018-02-23T03:04:34.094Z,78.82
2018-02-23T03:05:34.072Z,78.35
2018-02-23T03:06:34.044Z,79.01
2018-02-23T03:07:34.027Z,79.29
2018-02-23T03:08:33.999Z,78.92
2018-02-23T03:09:33.969Z,79.29
2018-02-23T03:10:33.951Z,78.73
2018-02-23T03:11:33.920Z,78.54
2018-02-23T03:12:33.901Z,77.88
2018-02-23T03:13:33.876Z,78.07
2018-02-23T03:14:33.851Z,77.97
2018-02-23T03:15:33.824Z,78.44
2018-02-23T03:16:33.801Z,78.35
2018-02-23T03:17:33.777Z,77.78
2018-02-23T03:18:33.751Z,78.16
2018-02-23T03:19:33.731Z,78.54
2018-02-23T03:20:33.448Z,79.01
2018-02-23T03:21:33.681Z,79.2
2018-02-23T03:22:33.655Z,79.29
2018-02-23T03:23:33.630Z,78.73
2018-02-23T03:24:33.612Z,79.67
2018-02-23T03:25:33.582Z,80.52
2018-02-23T03:26:33.561Z,80.99
2018-02-23T03:27:33.536Z,81.46
2018-02-23T03:28:33.511Z,82.68
2018-02-23T03:29:33.232Z,82.5
2018-02-23T03:30:33.466Z,82.59
2018-02-23T03:31:33.185Z,82.59
2018-02-23T03:32:33.157Z,82.12
2018-02-23T03:33:33.390Z,81.74
2018-02-23T03:34:33.365Z,81.65
2018-02-23T03:35:33.340Z,81.18
2018-02-23T03:36:33.318Z,80.24
2018-02-23T03:37:33.297Z,80.05
2018-02-23T03:38:33.271Z,79.1
2018-02-23T03:39:33.245Z,79.01
2018-02-23T03:40:33.224Z,78.73
2018-02-23T03:41:33.201Z,79.2
2018-02-23T03:42:33.180Z,79.39
2018-02-23T03:43:33.152Z,79.1
2018-02-23T03:44:33.132Z,79.76
2018-02-23T03:45:33.099Z,79.76
2018-02-23T03:46:33.084Z,79.86
2018-02-23T03:47:33.052Z,79.58
2018-02-23T03:48:33.029Z,79.58
2018-02-23T03:49:33.012Z,79.29
2018-02-23T03:50:32.982Z,79.01
2018-02-23T03:51:32.701Z,79.01
2018-02-23T03:52:32.932Z,78.44
2018-02-23T03:53:32.909Z,78.26
2018-02-23T03:54:32.627Z,78.16
2018-02-23T03:55:32.865Z,78.35
2018-02-23T03:56:32.836Z,78.07
2018-02-23T03:57:32.822Z,78.26
2018-02-23T03:58:32.788Z,78.44
2018-02-23T03:59:32.764Z,77.78
2018-02-23T04:00:32.740Z,78.16
2018-02-23T04:01:32.717Z,77.97
2018-02-23T04:02:32.690Z,78.26
2018-02-23T04:03:32.666Z,77.78
2018-02-23T04:04:32.644Z,77.5
2018-02-23T04:05:32.620Z,76.84
2018-02-23T04:06:32.598Z,76.28
2018-02-23T04:07:32.312Z,75.81
2018-02-23T04:08:32.547Z,75.43
2018-02-23T04:09:32.522Z,75.05
2018-02-23T04:10:32.497Z,75.71
2018-02-23T04:11:32.473Z,75.15
2018-02-23T04:12:32.451Z,75.62
2018-02-23T04:13:32.166Z,75.62
2018-02-23T04:14:32.399Z,76.18
2018-02-23T04:15:32.376Z,76.56
2018-02-23T04:16:32.355Z,77.12
2018-02-23T04:17:32.328Z,77.12
2018-02-23T04:18:32.301Z,77.69
2018-02-23T04:19:32.278Z,77.78
2018-02-23T04:20:32.258Z,78.26
2018-02-23T04:21:31.972Z,77.78
2018-02-23T04:22:31.948Z,77.69
2018-02-23T04:23:32.186Z,77.78
2018-02-23T04:24:32.159Z,77.22
2018-02-23T04:25:32.133Z,77.5
2018-02-23T04:26:32.107Z,77.6
2018-02-23T04:27:32.092Z,77.03
2018-02-23T04:28:32.111Z,76.84
2018-02-23T04:29:31.782Z,76.56
2018-02-23T04:30:32.015Z,76.84
2018-02-23T04:31:31.992Z,76.84
2018-02-23T04:32:31.706Z,75.9
2018-02-23T04:33:31.942Z,76.18
2018-02-23T04:34:31.658Z,76.43
2018-02-23T04:35:31.893Z,76.81
2018-02-23T04:36:31.871Z,76.65
2018-02-23T04:37:31.841Z,76.52
2018-02-23T04:38:31.562Z,76.05
2018-02-23T04:39:31.536Z,76.05
2018-02-23T04:40:31.519Z,76.52
2018-02-23T04:41:31.747Z,77.28
2018-02-23T04:42:31.719Z,77.66
2018-02-23T04:43:31.699Z,77.28
2018-02-23T04:44:31.678Z,77.94
2018-02-23T04:45:31.648Z,78.31
2018-02-23T04:46:31.624Z,78.13
2018-02-23T04:47:31.599Z,78.03
2018-02-23T04:48:31.577Z,78.88
2018-02-23T04:49:31.556Z,78.5
2018-02-23T04:50:31.524Z,79.06
2018-02-23T04:51:31.504Z,78.88
2018-02-23T04:52:31.480Z,78.13
2018-02-23T04:53:31.452Z,77.84
2018-02-23T04:54:31.433Z,77.18
2018-02-23T04:55:31.149Z,76.24
2018-02-23T04:56:31.385Z,76.34
2018-02-23T04:57:31.356Z,76.09
2018-02-23T04:58:31.334Z,76.37
2018-02-23T04:59:31.051Z,76.62
2018-02-23T05:00:31.287Z,77.18
2018-02-23T05:01:31.260Z,78.13
2018-02-23T05:02:31.283Z,78.78
2018-02-23T05:03:31.214Z,79.06
2018-02-23T05:04:31.187Z,79.25
2018-02-23T05:05:31.175Z,78.97
2018-02-23T05:06:31.138Z,78.88
2018-02-23T05:07:31.116Z,78.69
2018-02-23T05:08:31.090Z,78.03
2018-02-23T05:09:30.808Z,77.84
2018-02-23T05:10:31.046Z,78.03
2018-02-23T05:11:31.021Z,77.47
2018-02-23T05:12:30.991Z,76.9
2018-02-23T05:13:30.966Z,77.09
2018-02-23T05:14:30.686Z,76.81
2018-02-23T05:15:30.921Z,76.15
2018-02-23T05:16:30.944Z,76.15
2018-02-23T05:17:30.873Z,75.87
2018-02-23T05:18:30.843Z,76.34
2018-02-23T05:19:30.818Z,76.43
2018-02-23T05:20:30.799Z,75.68
2018-02-23T05:21:30.512Z,74.92
2018-02-23T05:22:30.745Z,73.42
2018-02-23T05:23:30.723Z,73.42
2018-02-23T05:24:30.699Z,73.23
2018-02-23T05:25:30.418Z,72.66
2018-02-23T05:26:30.650Z,72.29
2018-02-23T05:27:30.626Z,72.76
2018-02-23T05:28:30.600Z,72.66
2018-02-23T05:29:30.320Z,72.29
2018-02-23T05:30:30.551Z,72.38
2018-02-23T05:31:30.524Z,72.38
2018-02-23T05:32:30.502Z,73.04
2018-02-23T05:33:30.481Z,73.04
2018-02-23T05:34:30.454Z,73.23
2018-02-23T05:35:30.428Z,73.42
2018-02-23T05:36:30.404Z,73.04
2018-02-23T05:37:30.123Z,72.57
2018-02-23T05:38:30.357Z,72.29
2018-02-23T05:39:30.074Z,72.29
2018-02-23T05:40:30.306Z,71.91
2018-02-23T05:41:30.284Z,71.44
2018-02-23T05:42:30.003Z,71.63
2018-02-23T05:43:29.977Z,71.72
2018-02-23T05:44:30.208Z,71.81
2018-02-23T05:45:30.187Z,71.53
2018-02-23T05:46:30.164Z,71.44
2018-02-23T05:47:30.138Z,71.53
2018-02-23T05:48:30.111Z,71.25
2018-02-23T05:49:30.086Z,71.53
2018-02-23T05:50:30.061Z,71.25
2018-02-23T05:51:29.780Z,71.81
2018-02-23T05:52:29.754Z,71.81
2018-02-23T05:53:29.732Z,71.53
2018-02-23T05:54:29.707Z,71.25
2018-02-23T05:55:29.940Z,71.15
2018-02-23T05:56:29.917Z,72
2018-02-23T05:57:29.890Z,72.47
2018-02-23T05:58:29.610Z,73.04
2018-02-23T05:59:29.839Z,73.32
2018-02-23T06:00:29.816Z,73.32
2018-02-23T06:01:29.538Z,73.42
2018-02-23T06:02:29.769Z,73.89
2018-02-23T06:03:29.744Z,73.32
2018-02-23T06:04:29.719Z,73.98
2018-02-23T06:05:29.706Z,74.64
2018-02-23T06:06:29.673Z,75.02
2018-02-23T06:07:29.388Z,75.11
2018-02-23T06:08:29.622Z,75.68
2018-02-23T06:09:29.596Z,75.96
2018-02-23T06:10:29.320Z,75.96
2018-02-23T06:11:29.550Z,76.15
2018-02-23T06:12:29.525Z,75.87
2018-02-23T06:13:29.503Z,75.68
2018-02-23T06:14:29.218Z,75.77
2018-02-23T06:15:29.450Z,74.73
2018-02-23T06:16:29.428Z,74.45
2018-02-23T06:17:29.145Z,74.08
2018-02-23T06:18:29.123Z,73.32
2018-02-23T06:19:29.118Z,72.47
2018-02-23T06:20:29.071Z,72.19
2018-02-23T06:21:29.304Z,72.47
2018-02-23T06:22:29.281Z,72.29
2018-02-23T06:23:29.254Z,72.47
2018-02-23T06:24:29.234Z,73.42
2018-02-23T06:25:28.948Z,74.55
2018-02-23T06:26:29.181Z,74.73
2018-02-23T06:27:29.157Z,74.83
2018-02-23T06:28:28.875Z,75.49
2018-02-23T06:29:28.850Z,75.49
2018-02-23T06:30:29.092Z,75.77
2018-02-23T06:31:29.059Z,75.3
2018-02-23T06:32:29.035Z,75.39
2018-02-23T06:33:29.011Z,75.11
2018-02-23T06:34:28.730Z,75.21
2018-02-23T06:35:28.960Z,76.52
2018-02-23T06:36:28.950Z,77.09
2018-02-23T06:37:28.914Z,77
2018-02-23T06:38:28.889Z,77.18
2018-02-23T06:39:28.864Z,77.56
2018-02-23T06:40:28.839Z,77.47
2018-02-23T06:41:28.814Z,76.9
2018-02-23T06:42:28.796Z,77.18
2018-02-23T06:43:28.510Z,77.75
2018-02-23T06:44:28.742Z,77.75
2018-02-23T06:45:28.460Z,77.56
2018-02-23T06:46:28.438Z,77.6
2018-02-23T06:47:28.667Z,77.88
2018-02-23T06:48:28.642Z,77.88
2018-02-23T06:49:28.619Z,77.97
2018-02-23T06:50:28.594Z,78.92
2018-02-23T06:51:28.571Z,78.82
2018-02-23T06:52:28.571Z,79.1
2018-02-23T06:53:28.525Z,79.76
2018-02-23T06:54:28.497Z,79.95
2018-02-23T06:55:28.472Z,80.42
2018-02-23T06:56:28.449Z,81.08
2018-02-23T06:57:28.424Z,81.27
2018-02-23T06:58:28.399Z,81.27
2018-02-23T06:59:28.379Z,81.18
2018-02-23T07:00:28.356Z,80.52
2018-02-23T07:01:28.325Z,80.8
2018-02-23T07:02:28.306Z,80.99
2018-02-23T07:03:28.329Z,80.61
2018-02-23T07:04:28.252Z,80.42
2018-02-23T07:05:27.973Z,79.67
2018-02-23T07:06:28.205Z,79.48
2018-02-23T07:07:27.926Z,79.2
2018-02-23T07:08:28.157Z,79.01
2018-02-23T07:09:28.134Z,78.16
2018-02-23T07:10:28.109Z,77.97
2018-02-23T07:11:27.827Z,78.35
2018-02-23T07:12:28.060Z,78.16
2018-02-23T07:13:27.777Z,77.88
2018-02-23T07:14:27.754Z,77.97
2018-02-23T07:15:27.989Z,78.16
2018-02-23T07:16:27.977Z,78.35
2018-02-23T07:17:27.683Z,78.35
2018-02-23T07:18:27.916Z,78.07
2018-02-23T07:19:27.893Z,78.16
2018-02-23T07:20:27.867Z,78.16
2018-02-23T07:21:27.842Z,78.73
2018-02-23T07:22:27.561Z,78.35
2018-02-23T07:23:27.536Z,78.26
2018-02-23T07:24:27.775Z,77.5
2018-02-23T07:25:27.492Z,78.07
2018-02-23T07:26:27.724Z,77.03
2018-02-23T07:27:27.702Z,77.22
2018-02-23T07:28:27.416Z,77.22
2018-02-23T07:29:27.397Z,77.12
2018-02-23T07:30:27.629Z,77.03
2018-02-23T07:31:27.604Z,77.03
2018-02-23T07:32:27.588Z,76.56
2018-02-23T07:33:27.298Z,76.56
2018-02-23T07:34:27.536Z,76.84
2018-02-23T07:35:27.252Z,76.94
2018-02-23T07:36:27.227Z,76.94
2018-02-23T07:37:27.459Z,77.03
2018-02-23T07:38:27.435Z,77.41
2018-02-23T07:39:27.193Z,77.22
2018-02-23T07:40:27.392Z,78.07
2018-02-23T07:41:27.109Z,78.92
2018-02-23T07:42:27.342Z,79.29
2018-02-23T07:43:27.325Z,80.05
2018-02-23T07:44:27.295Z,80.8
2018-02-23T07:45:27.269Z,81.37
2018-02-23T07:46:27.251Z,81.74
2018-02-23T07:47:27.230Z,82.59
2018-02-23T07:48:27.206Z,82.92
2018-02-23T07:49:27.178Z,83.15
2018-02-23T07:50:27.228Z,83.86
2018-02-23T07:51:27.128Z,84.8
2018-02-23T07:52:27.106Z,84.8
2018-02-23T07:53:27.086Z,84.23
2018-02-23T07:54:26.802Z,84.99
2018-02-23T07:55:27.045Z,85.74
2018-02-23T07:56:27.012Z,85.55
2018-02-23T07:57:26.729Z,86.02
2018-02-23T07:58:26.965Z,86.11
2018-02-23T07:59:26.684Z,85.74
2018-02-23T08:00:26.918Z,86.4
2018-02-23T08:01:26.901Z,87.15
2018-02-23T08:02:26.612Z,87.06
2018-02-23T08:03:26.852Z,87.72
2018-02-23T08:04:26.823Z,88
2018-02-23T08:05:26.801Z,88.57
2018-02-23T08:06:26.520Z,89.04
2018-02-23T08:07:26.756Z,88.47
2018-02-23T08:08:26.734Z,89.04
2018-02-23T08:09:26.706Z,89.42
2018-02-23T08:10:26.426Z,89.51
2018-02-23T08:11:26.661Z,89.42
2018-02-23T08:12:26.384Z,89.51
2018-02-23T08:13:26.615Z,89.79
2018-02-23T08:14:26.590Z,90.08
2018-02-23T08:15:26.571Z,90.83
2018-02-23T08:16:26.546Z,90.55
2018-02-23T08:17:26.263Z,91.86
2018-02-23T08:18:26.500Z,92.05
2018-02-23T08:19:26.216Z,92.52
2018-02-23T08:20:26.454Z,92.52
2018-02-23T08:21:26.432Z,92.8
2018-02-23T08:22:26.146Z,92.62
2018-02-23T08:23:26.382Z,93.09
2018-02-23T08:24:26.358Z,94.5
2018-02-23T08:25:26.339Z,95.16
2018-02-23T08:26:26.368Z,94.98
2018-02-23T08:27:26.290Z,96.11
2018-02-23T08:28:26.266Z,96.67
2018-02-23T08:29:25.985Z,98.27
2018-02-23T08:30:26.222Z,98.83
2018-02-23T08:31:26.200Z,98.36
2018-02-23T08:32:26.174Z,99.31
2018-02-23T08:33:25.892Z,99.21
2018-02-23T08:34:26.133Z,99.59
2018-02-23T08:35:26.105Z,99.99
2018-02-23T08:36:26.085Z,99.97
2018-02-23T08:37:26.062Z,99.99
2018-02-23T08:38:26.036Z,99.99
2018-02-23T08:39:26.017Z,99.99
2018-02-23T08:40:25.991Z,99.99
2018-02-23T08:41:25.712Z,99.99
2018-02-23T08:42:25.944Z,99.99
2018-02-23T08:43:25.921Z,99.99
2018-02-23T08:44:25.900Z,99.99
2018-02-23T08:45:25.879Z,99.99
2018-02-23T08:46:25.854Z,99.99
2018-02-23T08:47:25.839Z,99.99
2018-02-23T08:48:25.808Z,99.99
2018-02-23T08:49:25.528Z,99.99
2018-02-23T08:50:25.506Z,99.99
2018-02-23T08:51:25.742Z,99.99
2018-02-23T08:52:25.718Z,99.99
2018-02-23T08:53:25.697Z,99.99
2018-02-23T08:54:25.676Z,99.99
2018-02-23T08:55:25.650Z,99.99
2018-02-23T08:56:25.371Z,99.99
2018-02-23T08:57:25.605Z,99.99
2018-02-23T08:58:25.327Z,99.99
2018-02-23T08:59:25.560Z,99.99
2018-02-23T09:00:25.543Z,99.99
2018-02-23T09:01:25.361Z,99.99
2018-02-23T09:02:25.235Z,99.99
2018-02-23T09:03:25.214Z,99.99
2018-02-23T09:04:25.447Z,99.99
2018-02-23T09:05:25.169Z,99.99
2018-02-23T09:06:25.404Z,99.99
2018-02-23T09:07:25.378Z,99.99
2018-02-23T09:08:25.363Z,99.99
2018-02-23T09:09:25.334Z,99.99
2018-02-23T09:10:25.311Z,99.99
2018-02-23T09:11:25.289Z,99.99
2018-02-23T09:12:25.371Z,99.99
2018-02-23T09:13:25.245Z,99.99
2018-02-23T09:14:24.966Z,99.99
2018-02-23T09:15:25.245Z,99.99
2018-02-23T09:16:25.179Z,99.99
2018-02-23T09:17:25.157Z,99.99
2018-02-23T09:18:24.883Z,99.99
2018-02-23T09:19:25.162Z,99.99
2018-02-23T09:20:25.093Z,99.99
2018-02-23T09:21:25.071Z,99.99
2018-02-23T09:22:25.050Z,99.99
2018-02-23T09:23:25.027Z,99.99
2018-02-23T09:24:25.002Z,99.99
2018-02-23T09:25:24.985Z,99.99
2018-02-23T09:26:24.960Z,99.99
2018-02-23T09:27:24.937Z,99.99
2018-02-23T09:28:24.923Z,99.99
2018-02-23T09:29:24.895Z,99.99
2018-02-23T09:30:24.874Z,99.99
2018-02-23T09:31:24.897Z,99.99
2018-02-23T09:32:24.829Z,99.99
2018-02-23T09:33:24.812Z,99.99
2018-02-23T09:34:24.526Z,99.99
2018-02-23T09:35:24.505Z,99.99
2018-02-23T09:36:24.743Z,99.99
2018-02-23T09:37:24.723Z,99.99
2018-02-23T09:38:24.697Z,99.99
2018-02-23T09:39:24.678Z,99.99
2018-02-23T09:40:24.654Z,99.99
2018-02-23T09:41:24.639Z,99.99
2018-02-23T09:42:24.608Z,99.99
2018-02-23T09:43:24.594Z,99.99
2018-02-23T09:44:24.571Z,99.99
2018-02-23T09:45:24.287Z,99.99
2018-02-23T09:46:24.524Z,99.99
2018-02-23T09:47:24.502Z,99.99
2018-02-23T09:48:24.226Z,99.99
2018-02-23T09:49:24.467Z,99.99
2018-02-23T09:50:24.439Z,99.99
2018-02-23T09:51:24.416Z,99.99
2018-02-23T09:52:24.397Z,99.99
2018-02-23T09:53:24.380Z,99.99
2018-02-23T09:54:24.354Z,99.99
2018-02-23T09:55:24.073Z,99.99
2018-02-23T09:56:24.054Z,99.99
2018-02-23T09:57:24.286Z,99.99
2018-02-23T09:58:24.268Z,99.99
2018-02-23T09:59:24.249Z,99.99
2018-02-23T10:00:24.222Z,99.99
2018-02-23T10:01:24.208Z,99.99
2018-02-23T10:02:24.186Z,99.99
2018-02-23T10:03:24.163Z,99.99
2018-02-23T10:04:24.138Z,99.99
2018-02-23T10:05:24.117Z,99.99
2018-02-23T10:06:24.103Z,99.99
2018-02-23T10:07:23.824Z,99.99
2018-02-23T10:08:23.800Z,99.99
2018-02-23T10:09:24.037Z,99.99
2018-02-23T10:10:24.016Z,99.99
2018-02-23T10:11:23.993Z,99.99
2018-02-23T10:12:23.713Z,99.99
2018-02-23T10:13:23.693Z,99.99
2018-02-23T10:14:23.928Z,99.99
2018-02-23T10:15:23.907Z,99.99
2018-02-23T10:16:23.885Z,99.99
2018-02-23T10:17:23.865Z,99.99
2018-02-23T10:18:23.585Z,99.99
2018-02-23T10:19:23.821Z,99.99
2018-02-23T10:20:23.800Z,99.99
2018-02-23T10:21:23.786Z,99.99
2018-02-23T10:22:23.501Z,99.99
2018-02-23T10:23:23.738Z,99.99
2018-02-23T10:24:23.460Z,99.99
2018-02-23T10:25:23.440Z,99.99
2018-02-23T10:26:23.419Z,99.74
2018-02-23T10:27:23.660Z,99.08
2018-02-23T10:28:23.377Z,99.27
2018-02-23T10:29:23.617Z,99.84
2018-02-23T10:30:23.592Z,99.93
2018-02-23T10:31:23.576Z,99.37
2018-02-23T10:32:23.558Z,98.71
2018-02-23T10:33:23.530Z,97.34
2018-02-23T10:34:23.510Z,97.53
2018-02-23T10:35:23.491Z,96.96
2018-02-23T10:36:23.519Z,97.19
2018-02-23T10:37:23.451Z,97.05
2018-02-23T10:38:23.170Z,96.44
2018-02-23T10:39:23.408Z,96.58
2018-02-23T10:40:23.392Z,97.72
2018-02-23T10:41:23.108Z,97.62
2018-02-23T10:42:23.347Z,96.58
2018-02-23T10:43:23.069Z,97.24
2018-02-23T10:44:23.307Z,97.43
2018-02-23T10:45:23.026Z,96.11
2018-02-23T10:46:23.006Z,96.2
2018-02-23T10:47:22.986Z,96.2
2018-02-23T10:48:23.227Z,95.07
2018-02-23T10:49:22.946Z,95.07
2018-02-23T10:50:23.185Z,93.75
2018-02-23T10:51:23.161Z,92.8
2018-02-23T10:52:23.144Z,92.61
2018-02-23T10:53:23.122Z,93.47
2018-02-23T10:54:23.104Z,93.37
2018-02-23T10:55:23.080Z,91.49
2018-02-23T10:56:23.061Z,90.73
2018-02-23T10:57:23.044Z,90.92
2018-02-23T10:58:22.765Z,91.67
2018-02-23T10:59:23.002Z,92.52
2018-02-23T11:00:22.722Z,90.82
2018-02-23T11:01:22.960Z,91.11
2018-02-23T11:02:22.683Z,90.64
2018-02-23T11:03:22.925Z,89.88
2018-02-23T11:04:22.899Z,90.26
2018-02-23T11:05:22.883Z,90.16
2018-02-23T11:06:22.601Z,88.46
2018-02-23T11:07:22.862Z,88.28
2018-02-23T11:08:22.562Z,88.65
2018-02-23T11:09:22.542Z,87.62
2018-02-23T11:10:22.779Z,87.33
2018-02-23T11:11:22.760Z,88.18
2018-02-23T11:12:22.740Z,88.46
2018-02-23T11:13:22.721Z,88.28
2018-02-23T11:14:22.441Z,89.59
2018-02-23T11:15:22.422Z,89.78
2018-02-23T11:16:22.661Z,90.73
2018-02-23T11:17:22.380Z,90.54
2018-02-23T11:18:22.619Z,90.45
2018-02-23T11:19:22.598Z,91.11
2018-02-23T11:20:22.322Z,90.16
2018-02-23T11:21:22.562Z,89.78
2018-02-23T11:22:22.280Z,89.88
2018-02-23T11:23:22.263Z,91.01
2018-02-23T11:24:22.244Z,91.11
2018-02-23T11:25:22.483Z,89.88
2018-02-23T11:26:22.460Z,89.12
2018-02-23T11:27:22.444Z,87.9
2018-02-23T11:28:22.425Z,87.9
2018-02-23T11:29:22.398Z,88.37
2018-02-23T11:30:22.396Z,88.46
2018-02-23T11:31:22.359Z,88.46
2018-02-23T11:32:22.338Z,87.99
2018-02-23T11:33:22.318Z,87.99
2018-02-23T11:34:22.301Z,87.52
2018-02-23T11:35:22.276Z,86.29
2018-02-23T11:36:22.258Z,85.72
2018-02-23T11:37:22.248Z,86.67
2018-02-23T11:38:22.220Z,87.14
2018-02-23T11:39:22.204Z,88.93
2018-02-23T11:40:21.921Z,89.97
2018-02-23T11:41:22.158Z,89.12
2018-02-23T11:42:21.882Z,88.84
2018-02-23T11:43:22.121Z,88.46
2018-02-23T11:44:22.098Z,87.9
2018-02-23T11:45:21.824Z,88.56
2018-02-23T11:46:21.801Z,88.28
2018-02-23T11:47:22.042Z,87.43
2018-02-23T11:48:22.020Z,87.99
2018-02-23T11:49:22.005Z,87.8
2018-02-23T11:50:22.109Z,87.62
2018-02-23T11:51:21.702Z,87.43
2018-02-23T11:52:21.940Z,87.43
2018-02-23T11:53:21.662Z,87.8
2018-02-23T11:54:21.903Z,87.8
2018-02-23T11:55:21.884Z,88.75
2018-02-23T11:56:21.859Z,88.84
2018-02-23T11:57:21.840Z,86.86
2018-02-23T11:58:21.824Z,86.95
2018-02-23T11:59:21.800Z,87.52
2018-02-23T12:00:21.786Z,87.24
2018-02-23T12:01:21.770Z,88.37
2018-02-23T12:02:21.741Z,87.05
2018-02-23T12:03:21.465Z,87.33
2018-02-23T12:04:21.446Z,89.5
2018-02-23T12:05:21.683Z,89.69
2018-02-23T12:06:21.666Z,90.26
2018-02-23T12:07:21.641Z,89.78
2018-02-23T12:08:21.623Z,89.88
2018-02-23T12:09:21.345Z,90.16
2018-02-23T12:10:21.585Z,89.31
2018-02-23T12:11:21.562Z,88.37
2018-02-23T12:12:21.540Z,88.65
2018-02-23T12:13:21.522Z,89.5
2018-02-23T12:14:21.246Z,88.28
2018-02-23T12:15:21.481Z,87.9
2018-02-23T12:16:21.460Z,87.62
2018-02-23T12:17:21.457Z,88.37
2018-02-23T12:18:21.425Z,88.46
2018-02-23T12:19:21.401Z,87.99
2018-02-23T12:20:21.385Z,88.18
2018-02-23T12:21:21.445Z,90.45
2018-02-23T12:22:21.344Z,90.73
2018-02-23T12:23:21.322Z,91.2
2018-02-23T12:24:21.301Z,91.96
2018-02-23T12:25:21.282Z,91.77
2018-02-23T12:26:21.261Z,91.11
2018-02-23T12:27:21.242Z,89.78
2018-02-23T12:28:21.232Z,89.12
2018-02-23T12:29:20.947Z,89.69
2018-02-23T12:30:20.926Z,89.22
2018-02-23T12:31:21.168Z,89.31
2018-02-23T12:32:21.146Z,90.82
2018-02-23T12:33:20.866Z,91.86
2018-02-23T12:34:21.103Z,91.01
2018-02-23T12:35:21.085Z,90.92
2018-02-23T12:36:20.818Z,89.31
2018-02-23T12:37:21.042Z,87.8
2018-02-23T12:38:21.028Z,88.46
2018-02-23T12:39:21.007Z,90.07
2018-02-23T12:40:20.987Z,88.65
2018-02-23T12:41:20.972Z,88.65
2018-02-23T12:42:20.943Z,88.56
2018-02-23T12:43:20.925Z,88.46
2018-02-23T12:44:20.647Z,89.4
2018-02-23T12:45:20.884Z,89.78
2018-02-23T12:46:20.607Z,90.26
2018-02-23T12:47:20.850Z,89.88
2018-02-23T12:48:20.824Z,91.11
2018-02-23T12:49:20.550Z,90.92
2018-02-23T12:50:20.784Z,89.69
2018-02-23T12:51:20.765Z,89.31
2018-02-23T12:52:20.491Z,88.28
2018-02-23T12:53:20.726Z,87.8
2018-02-23T12:54:20.449Z,87.8
2018-02-23T12:55:20.689Z,88.75